EWG8NB EDDK-EGKK
Flight info
| Callsign | EWG8NB |
|---|---|
| Flight time | 0h 59m |
| Altitude | 32000 |
| Route | NVO2Q NVO Y868 NAVAK DCT DENUT L610 TEBRA |
| Aircraft | A319/M-SDE3FGHIRWY/LB1 |
Departure
| Time | 2026-04-22 07:11 |
|---|---|
| Airport | Cologne Bonn Airport (EDDK) |
Arrival
| Time | 2026-04-22 08:11 |
|---|---|
| Airport | London Gatwick Airport (EGKK) |
| Time | Latitude | Longitude | Altitude | Speed | Heading |
|---|---|---|---|---|---|
| 2026-04-22 06:46 | 50.87733 | 7.12385 | 232 ft | 0 kts | 288° |
| 2026-04-22 07:03 | 50.87731 | 7.12391 | 230 ft | 3 kts | 288° |
| 2026-04-22 07:03 | 50.87725 | 7.12420 | 232 ft | 3 kts | 288° |
| 2026-04-22 07:03 | 50.87720 | 7.12448 | 232 ft | 3 kts | 288° |
| 2026-04-22 07:04 | 50.87714 | 7.12477 | 232 ft | 3 kts | 288° |
| 2026-04-22 07:04 | 50.87708 | 7.12505 | 230 ft | 3 kts | 288° |
| 2026-04-22 07:04 | 50.87702 | 7.12533 | 233 ft | 3 kts | 288° |
| 2026-04-22 07:04 | 50.87696 | 7.12561 | 233 ft | 3 kts | 288° |
| 2026-04-22 07:05 | 50.87691 | 7.12586 | 232 ft | 2 kts | 288° |
| 2026-04-22 07:05 | 50.87689 | 7.12597 | 234 ft | 0 kts | 288° |
| 2026-04-22 07:07 | 50.87688 | 7.12600 | 234 ft | 0 kts | 288° |
| 2026-04-22 07:07 | 50.87689 | 7.12594 | 233 ft | 2 kts | 288° |
| 2026-04-22 07:07 | 50.87698 | 7.12554 | 233 ft | 6 kts | 291° |
| 2026-04-22 07:08 | 50.87734 | 7.12533 | 230 ft | 8 kts | 6° |
| 2026-04-22 07:08 | 50.87795 | 7.12564 | 230 ft | 11 kts | 18° |
| 2026-04-22 07:08 | 50.87881 | 7.12607 | 230 ft | 15 kts | 18° |
| 2026-04-22 07:08 | 50.87973 | 7.12698 | 232 ft | 17 kts | 50° |
| 2026-04-22 07:09 | 50.87995 | 7.12755 | 234 ft | 0 kts | 65° |
| 2026-04-22 07:09 | 50.87995 | 7.12757 | 236 ft | 1 kts | 65° |
| 2026-04-22 07:10 | 50.88000 | 7.12776 | 236 ft | 3 kts | 69° |
| 2026-04-22 07:10 | 50.88008 | 7.12825 | 238 ft | 8 kts | 81° |
| 2026-04-22 07:10 | 50.87995 | 7.12951 | 238 ft | 16 kts | 110° |
| 2026-04-22 07:10 | 50.87942 | 7.13059 | 241 ft | 22 kts | 138° |
| 2026-04-22 07:11 | 50.87566 | 7.13606 | 246 ft | 100 kts | 137° |
| 2026-04-22 07:11 | 50.87154 | 7.14205 | 259 ft | 140 kts | 137° |
| 2026-04-22 07:11 | 50.86369 | 7.15355 | 722 ft | 154 kts | 135° |
| 2026-04-22 07:11 | 50.85276 | 7.16864 | 1743 ft | 162 kts | 137° |
| 2026-04-22 07:12 | 50.84358 | 7.18052 | 2272 ft | 180 kts | 138° |
| 2026-04-22 07:12 | 50.83684 | 7.18936 | 2550 ft | 197 kts | 137° |
| 2026-04-22 07:12 | 50.82611 | 7.20459 | 3257 ft | 213 kts | 136° |
| 2026-04-22 07:12 | 50.81504 | 7.22056 | 4243 ft | 217 kts | 135° |
| 2026-04-22 07:13 | 50.80367 | 7.23670 | 5283 ft | 222 kts | 138° |
| 2026-04-22 07:13 | 50.78913 | 7.24625 | 6208 ft | 241 kts | 169° |
| 2026-04-22 07:13 | 50.77151 | 7.24283 | 6799 ft | 274 kts | 200° |
| 2026-04-22 07:13 | 50.75640 | 7.22332 | 7631 ft | 292 kts | 235° |
| 2026-04-22 07:14 | 50.74991 | 7.19281 | 8601 ft | 300 kts | 266° |
| 2026-04-22 07:14 | 50.75011 | 7.15963 | 9627 ft | 304 kts | 276° |
| 2026-04-22 07:14 | 50.75243 | 7.12630 | 10574 ft | 310 kts | 279° |
| 2026-04-22 07:14 | 50.75560 | 7.09167 | 10972 ft | 334 kts | 280° |
| 2026-04-22 07:15 | 50.75909 | 7.05416 | 11631 ft | 346 kts | 279° |
| 2026-04-22 07:15 | 50.76230 | 7.01613 | 12472 ft | 352 kts | 279° |
| 2026-04-22 07:15 | 50.76514 | 6.97808 | 13327 ft | 356 kts | 278° |
| 2026-04-22 07:15 | 50.76776 | 6.93878 | 14191 ft | 361 kts | 277° |
| 2026-04-22 07:16 | 50.77024 | 6.89911 | 14956 ft | 365 kts | 277° |
| 2026-04-22 07:16 | 50.77266 | 6.85901 | 15731 ft | 369 kts | 277° |
| 2026-04-22 07:16 | 50.77510 | 6.81846 | 16483 ft | 372 kts | 277° |
| 2026-04-22 07:16 | 50.77756 | 6.77762 | 17241 ft | 376 kts | 277° |
| 2026-04-22 07:17 | 50.78007 | 6.73620 | 18004 ft | 380 kts | 277° |
| 2026-04-22 07:17 | 50.78262 | 6.69451 | 18752 ft | 384 kts | 277° |
| 2026-04-22 07:17 | 50.78521 | 6.65227 | 19411 ft | 388 kts | 277° |
| 2026-04-22 07:17 | 50.78780 | 6.60968 | 20038 ft | 392 kts | 277° |
| 2026-04-22 07:18 | 50.79039 | 6.56669 | 20274 ft | 393 kts | 277° |
| 2026-04-22 07:18 | 50.79293 | 6.52417 | 20334 ft | 395 kts | 277° |
| 2026-04-22 07:18 | 50.79556 | 6.48040 | 20344 ft | 395 kts | 277° |
| 2026-04-22 07:18 | 50.79812 | 6.43712 | 20345 ft | 395 kts | 277° |
| 2026-04-22 07:19 | 50.80065 | 6.39380 | 20346 ft | 395 kts | 277° |
| 2026-04-22 07:19 | 50.80318 | 6.35047 | 20555 ft | 398 kts | 277° |
| 2026-04-22 07:19 | 50.80575 | 6.30677 | 21201 ft | 401 kts | 277° |
| 2026-04-22 07:19 | 50.80831 | 6.26272 | 21840 ft | 404 kts | 277° |
| 2026-04-22 07:20 | 50.81084 | 6.21824 | 22474 ft | 408 kts | 277° |
| 2026-04-22 07:20 | 50.81336 | 6.17333 | 23097 ft | 412 kts | 277° |
| 2026-04-22 07:20 | 50.81585 | 6.12858 | 23724 ft | 416 kts | 277° |
| 2026-04-22 07:20 | 50.81843 | 6.08222 | 24268 ft | 420 kts | 277° |
| 2026-04-22 07:21 | 50.82095 | 6.03655 | 24788 ft | 423 kts | 277° |
| 2026-04-22 07:21 | 50.82350 | 5.99012 | 25331 ft | 426 kts | 277° |
| 2026-04-22 07:21 | 50.82614 | 5.94334 | 25876 ft | 427 kts | 278° |
| 2026-04-22 07:21 | 50.83156 | 5.89715 | 26410 ft | 427 kts | 288° |
| 2026-04-22 07:22 | 50.84023 | 5.85133 | 26958 ft | 429 kts | 289° |
| 2026-04-22 07:22 | 50.84883 | 5.80666 | 27484 ft | 431 kts | 289° |
| 2026-04-22 07:22 | 50.85757 | 5.76123 | 28006 ft | 433 kts | 289° |
| 2026-04-22 07:22 | 50.86633 | 5.71544 | 28531 ft | 435 kts | 289° |
| 2026-04-22 07:23 | 50.87507 | 5.66950 | 29052 ft | 438 kts | 289° |
| 2026-04-22 07:23 | 50.88384 | 5.62304 | 29538 ft | 439 kts | 289° |
| 2026-04-22 07:23 | 50.89248 | 5.57715 | 30096 ft | 440 kts | 289° |
| 2026-04-22 07:23 | 50.90138 | 5.52989 | 30581 ft | 442 kts | 289° |
| 2026-04-22 07:24 | 50.91020 | 5.48312 | 30999 ft | 444 kts | 289° |
| 2026-04-22 07:24 | 50.91900 | 5.43618 | 31397 ft | 446 kts | 289° |
| 2026-04-22 07:24 | 50.92783 | 5.38889 | 31792 ft | 447 kts | 289° |
| 2026-04-22 07:24 | 50.93665 | 5.34147 | 32177 ft | 449 kts | 289° |
| 2026-04-22 07:25 | 50.94550 | 5.29389 | 32328 ft | 447 kts | 289° |
| 2026-04-22 07:25 | 50.95412 | 5.24735 | 32348 ft | 433 kts | 289° |
| 2026-04-22 07:25 | 50.96242 | 5.20233 | 32349 ft | 420 kts | 289° |
| 2026-04-22 07:26 | 50.97848 | 5.11500 | 32348 ft | 410 kts | 288° |
| 2026-04-22 07:26 | 50.99445 | 5.02831 | 32349 ft | 408 kts | 288° |
| 2026-04-22 07:27 | 51.01034 | 4.94166 | 32349 ft | 408 kts | 288° |
| 2026-04-22 07:27 | 51.02607 | 4.85500 | 32356 ft | 408 kts | 288° |
| 2026-04-22 07:28 | 51.04955 | 4.72498 | 32349 ft | 408 kts | 288° |
| 2026-04-22 07:28 | 51.06514 | 4.63828 | 32346 ft | 407 kts | 288° |
| 2026-04-22 07:29 | 51.08050 | 4.55236 | 32345 ft | 406 kts | 288° |
| 2026-04-22 07:29 | 51.09587 | 4.46602 | 32343 ft | 405 kts | 288° |
| 2026-04-22 07:30 | 51.11114 | 4.37967 | 32342 ft | 405 kts | 288° |
| 2026-04-22 07:30 | 51.12637 | 4.29335 | 32345 ft | 405 kts | 288° |
| 2026-04-22 07:31 | 51.14155 | 4.20683 | 32349 ft | 405 kts | 288° |
| 2026-04-22 07:31 | 51.15669 | 4.12012 | 32346 ft | 405 kts | 287° |
| 2026-04-22 07:32 | 51.17158 | 4.03410 | 32343 ft | 405 kts | 287° |
| 2026-04-22 07:32 | 51.18655 | 3.94748 | 32335 ft | 405 kts | 287° |
| 2026-04-22 07:33 | 51.20147 | 3.86092 | 32331 ft | 405 kts | 287° |
| 2026-04-22 07:33 | 51.21634 | 3.77425 | 32318 ft | 404 kts | 287° |
| 2026-04-22 07:34 | 51.23108 | 3.68780 | 32329 ft | 403 kts | 287° |
| 2026-04-22 07:34 | 51.24478 | 3.60110 | 32336 ft | 403 kts | 284° |
| 2026-04-22 07:35 | 51.25607 | 3.51332 | 32337 ft | 403 kts | 283° |
| 2026-04-22 07:35 | 51.26701 | 3.42547 | 32334 ft | 403 kts | 283° |
| 2026-04-22 07:36 | 51.27829 | 3.33775 | 32336 ft | 403 kts | 284° |
| 2026-04-22 07:36 | 51.28956 | 3.25058 | 32340 ft | 402 kts | 283° |
| 2026-04-22 07:37 | 51.29521 | 3.20675 | 32123 ft | 402 kts | 283° |
| 2026-04-22 07:37 | 51.30080 | 3.16292 | 31869 ft | 403 kts | 284° |
| 2026-04-22 07:37 | 51.30639 | 3.11896 | 31613 ft | 404 kts | 283° |
| 2026-04-22 07:37 | 51.31197 | 3.07497 | 31361 ft | 404 kts | 284° |
| 2026-04-22 07:38 | 51.31754 | 3.03096 | 31111 ft | 404 kts | 283° |
| 2026-04-22 07:38 | 51.32308 | 2.98696 | 30862 ft | 403 kts | 283° |
| 2026-04-22 07:38 | 51.32858 | 2.94310 | 30616 ft | 402 kts | 282° |
| 2026-04-22 07:38 | 51.33406 | 2.89925 | 30359 ft | 401 kts | 283° |
| 2026-04-22 07:39 | 51.33945 | 2.85609 | 30058 ft | 400 kts | 283° |
| 2026-04-22 07:39 | 51.34482 | 2.81251 | 29775 ft | 398 kts | 283° |
| 2026-04-22 07:39 | 51.35010 | 2.76931 | 29432 ft | 392 kts | 283° |
| 2026-04-22 07:39 | 51.35535 | 2.72676 | 29007 ft | 389 kts | 282° |
| 2026-04-22 07:40 | 51.36063 | 2.68439 | 28595 ft | 386 kts | 283° |
| 2026-04-22 07:40 | 51.36586 | 2.64246 | 28177 ft | 384 kts | 283° |
| 2026-04-22 07:40 | 51.37101 | 2.60079 | 27789 ft | 381 kts | 282° |
| 2026-04-22 07:40 | 51.37609 | 2.55936 | 27388 ft | 378 kts | 283° |
| 2026-04-22 07:41 | 51.38112 | 2.51812 | 26991 ft | 375 kts | 283° |
| 2026-04-22 07:41 | 51.38608 | 2.47734 | 26615 ft | 371 kts | 282° |
| 2026-04-22 07:41 | 51.39099 | 2.43684 | 26233 ft | 368 kts | 282° |
| 2026-04-22 07:41 | 51.39588 | 2.39666 | 25832 ft | 366 kts | 282° |
| 2026-04-22 07:42 | 51.40069 | 2.35689 | 25441 ft | 363 kts | 282° |
| 2026-04-22 07:42 | 51.40536 | 2.31793 | 25039 ft | 360 kts | 284° |
| 2026-04-22 07:42 | 51.41004 | 2.27864 | 24626 ft | 358 kts | 283° |
| 2026-04-22 07:42 | 51.41472 | 2.23953 | 24224 ft | 356 kts | 283° |
| 2026-04-22 07:43 | 51.41942 | 2.20059 | 23779 ft | 356 kts | 283° |
| 2026-04-22 07:43 | 51.42406 | 2.16167 | 23333 ft | 354 kts | 282° |
| 2026-04-22 07:43 | 51.42865 | 2.12314 | 22905 ft | 351 kts | 282° |
| 2026-04-22 07:43 | 51.43319 | 2.08481 | 22482 ft | 349 kts | 282° |
| 2026-04-22 07:44 | 51.43764 | 2.04674 | 22054 ft | 347 kts | 282° |
| 2026-04-22 07:44 | 51.44203 | 2.00879 | 21633 ft | 345 kts | 282° |
| 2026-04-22 07:44 | 51.44648 | 1.97100 | 21210 ft | 344 kts | 282° |
| 2026-04-22 07:44 | 51.45113 | 1.93331 | 20786 ft | 344 kts | 283° |
| 2026-04-22 07:45 | 51.45580 | 1.89627 | 20369 ft | 343 kts | 283° |
| 2026-04-22 07:45 | 51.46056 | 1.85830 | 19954 ft | 343 kts | 283° |
| 2026-04-22 07:45 | 51.46502 | 1.82129 | 19520 ft | 342 kts | 282° |
| 2026-04-22 07:45 | 51.46940 | 1.78395 | 19096 ft | 342 kts | 282° |
| 2026-04-22 07:46 | 51.47373 | 1.74617 | 18668 ft | 342 kts | 281° |
| 2026-04-22 07:46 | 51.47800 | 1.70868 | 18199 ft | 341 kts | 281° |
| 2026-04-22 07:46 | 51.48224 | 1.67130 | 17770 ft | 340 kts | 281° |
| 2026-04-22 07:46 | 51.48542 | 1.63379 | 17349 ft | 338 kts | 272° |
| 2026-04-22 07:47 | 51.48385 | 1.59634 | 16926 ft | 336 kts | 258° |
| 2026-04-22 07:47 | 51.47728 | 1.56052 | 16511 ft | 333 kts | 247° |
| 2026-04-22 07:47 | 51.46925 | 1.52627 | 16103 ft | 332 kts | 248° |
| 2026-04-22 07:47 | 51.46120 | 1.49164 | 15699 ft | 330 kts | 248° |
| 2026-04-22 07:48 | 51.45325 | 1.45717 | 15289 ft | 330 kts | 248° |
| 2026-04-22 07:48 | 51.44565 | 1.42405 | 14902 ft | 329 kts | 248° |
| 2026-04-22 07:48 | 51.44234 | 1.41047 | 14744 ft | 328 kts | 245° |
| 2026-04-22 07:49 | 51.43105 | 1.37911 | 14344 ft | 324 kts | 230° |
| 2026-04-22 07:49 | 51.41583 | 1.35324 | 14111 ft | 323 kts | 217° |
| 2026-04-22 07:49 | 51.39790 | 1.33158 | 13893 ft | 324 kts | 213° |
| 2026-04-22 07:49 | 51.37973 | 1.31023 | 13679 ft | 324 kts | 212° |
| 2026-04-22 07:50 | 51.36164 | 1.28888 | 13461 ft | 323 kts | 213° |
| 2026-04-22 07:50 | 51.34356 | 1.26746 | 13249 ft | 322 kts | 213° |
| 2026-04-22 07:50 | 51.32562 | 1.24619 | 13046 ft | 321 kts | 213° |
| 2026-04-22 07:50 | 51.30769 | 1.22496 | 12820 ft | 321 kts | 213° |
| 2026-04-22 07:51 | 51.28974 | 1.20371 | 12607 ft | 321 kts | 213° |
| 2026-04-22 07:51 | 51.27180 | 1.18256 | 12401 ft | 319 kts | 213° |
| 2026-04-22 07:51 | 51.25393 | 1.16154 | 12189 ft | 318 kts | 213° |
| 2026-04-22 07:51 | 51.23632 | 1.14088 | 11969 ft | 317 kts | 213° |
| 2026-04-22 07:52 | 51.21857 | 1.12004 | 11759 ft | 316 kts | 213° |
| 2026-04-22 07:52 | 51.20088 | 1.09926 | 11547 ft | 315 kts | 213° |
| 2026-04-22 07:52 | 51.18353 | 1.07887 | 11352 ft | 315 kts | 213° |
| 2026-04-22 07:52 | 51.16582 | 1.05810 | 11139 ft | 314 kts | 213° |
| 2026-04-22 07:53 | 51.14829 | 1.03758 | 10919 ft | 313 kts | 213° |
| 2026-04-22 07:53 | 51.13074 | 1.01710 | 10716 ft | 312 kts | 212° |
| 2026-04-22 07:53 | 51.11328 | 0.99681 | 10508 ft | 309 kts | 212° |
| 2026-04-22 07:53 | 51.09607 | 0.97677 | 10246 ft | 304 kts | 212° |
| 2026-04-22 07:54 | 51.07914 | 0.95705 | 10084 ft | 301 kts | 212° |
| 2026-04-22 07:54 | 51.06310 | 0.93564 | 9902 ft | 304 kts | 223° |
| 2026-04-22 07:54 | 51.05061 | 0.90845 | 9709 ft | 307 kts | 239° |
| 2026-04-22 07:54 | 51.04139 | 0.87775 | 9516 ft | 308 kts | 243° |
| 2026-04-22 07:55 | 51.03229 | 0.84699 | 9334 ft | 307 kts | 242° |
| 2026-04-22 07:55 | 51.02314 | 0.81645 | 9131 ft | 306 kts | 242° |
| 2026-04-22 07:55 | 51.01397 | 0.78595 | 8941 ft | 305 kts | 242° |
| 2026-04-22 07:55 | 51.00483 | 0.75558 | 8748 ft | 304 kts | 242° |
| 2026-04-22 07:56 | 50.99572 | 0.72526 | 8552 ft | 304 kts | 242° |
| 2026-04-22 07:56 | 50.98661 | 0.69496 | 8355 ft | 303 kts | 241° |
| 2026-04-22 07:56 | 50.97770 | 0.66528 | 8159 ft | 302 kts | 241° |
| 2026-04-22 07:56 | 50.96864 | 0.63511 | 7967 ft | 301 kts | 241° |
| 2026-04-22 07:57 | 50.95961 | 0.60514 | 7766 ft | 300 kts | 241° |
| 2026-04-22 07:57 | 50.95060 | 0.57534 | 7562 ft | 300 kts | 241° |
| 2026-04-22 07:57 | 50.94165 | 0.54552 | 7415 ft | 299 kts | 243° |
| 2026-04-22 07:57 | 50.93716 | 0.51328 | 7427 ft | 304 kts | 270° |
| 2026-04-22 07:58 | 50.93980 | 0.48001 | 7440 ft | 305 kts | 281° |
| 2026-04-22 07:58 | 50.94237 | 0.45815 | 7443 ft | 304 kts | 281° |
| 2026-04-22 07:58 | 50.94646 | 0.42521 | 7448 ft | 305 kts | 281° |
| 2026-04-22 07:58 | 50.94997 | 0.39728 | 7450 ft | 305 kts | 281° |
| 2026-04-22 07:59 | 50.95497 | 0.35780 | 7449 ft | 305 kts | 281° |
| 2026-04-22 07:59 | 50.95916 | 0.32470 | 7450 ft | 305 kts | 281° |
| 2026-04-22 07:59 | 50.96200 | 0.30238 | 7448 ft | 305 kts | 281° |
| 2026-04-22 07:59 | 50.96616 | 0.26942 | 7443 ft | 305 kts | 281° |
| 2026-04-22 08:00 | 50.97034 | 0.23641 | 7438 ft | 305 kts | 281° |
| 2026-04-22 08:00 | 50.97445 | 0.20392 | 7433 ft | 305 kts | 281° |
| 2026-04-22 08:00 | 50.97865 | 0.17081 | 7423 ft | 305 kts | 281° |
| 2026-04-22 08:00 | 50.98281 | 0.13784 | 7412 ft | 305 kts | 281° |
| 2026-04-22 08:01 | 50.98699 | 0.10475 | 7399 ft | 306 kts | 281° |
| 2026-04-22 08:01 | 50.99113 | 0.07175 | 7385 ft | 306 kts | 281° |
| 2026-04-22 08:01 | 50.99530 | 0.03859 | 7358 ft | 305 kts | 281° |
| 2026-04-22 08:01 | 50.99945 | 0.00566 | 7024 ft | 304 kts | 281° |
| 2026-04-22 08:02 | 51.00361 | -0.02713 | 6629 ft | 303 kts | 281° |
| 2026-04-22 08:02 | 51.00788 | -0.05992 | 6260 ft | 302 kts | 281° |
| 2026-04-22 08:02 | 51.01211 | -0.09250 | 5901 ft | 300 kts | 281° |
| 2026-04-22 08:02 | 51.01630 | -0.12490 | 5567 ft | 298 kts | 281° |
| 2026-04-22 08:03 | 51.02033 | -0.15613 | 5241 ft | 296 kts | 281° |
| 2026-04-22 08:03 | 51.02453 | -0.18879 | 4891 ft | 295 kts | 281° |
| 2026-04-22 08:03 | 51.02859 | -0.22066 | 4544 ft | 293 kts | 281° |
| 2026-04-22 08:03 | 51.03263 | -0.25223 | 4209 ft | 291 kts | 281° |
| 2026-04-22 08:04 | 51.03658 | -0.28382 | 3880 ft | 290 kts | 281° |
| 2026-04-22 08:04 | 51.04039 | -0.31451 | 3704 ft | 282 kts | 281° |
| 2026-04-22 08:04 | 51.04406 | -0.34413 | 3570 ft | 265 kts | 281° |
| 2026-04-22 08:04 | 51.04747 | -0.37183 | 3435 ft | 247 kts | 281° |
| 2026-04-22 08:05 | 51.05282 | -0.39654 | 3278 ft | 227 kts | 308° |
| 2026-04-22 08:05 | 51.06268 | -0.41481 | 3129 ft | 212 kts | 319° |
| 2026-04-22 08:05 | 51.07298 | -0.43113 | 2928 ft | 207 kts | 321° |
| 2026-04-22 08:05 | 51.08321 | -0.44704 | 2708 ft | 203 kts | 322° |
| 2026-04-22 08:06 | 51.09497 | -0.45755 | 2330 ft | 188 kts | 1° |
| 2026-04-22 08:06 | 51.10667 | -0.45321 | 2067 ft | 164 kts | 43° |
| 2026-04-22 08:06 | 51.11323 | -0.43951 | 2009 ft | 154 kts | 74° |
| 2026-04-22 08:06 | 51.11571 | -0.42298 | 2011 ft | 155 kts | 80° |
| 2026-04-22 08:07 | 51.11806 | -0.40629 | 2006 ft | 154 kts | 80° |
| 2026-04-22 08:07 | 51.12041 | -0.38953 | 2007 ft | 155 kts | 80° |
| 2026-04-22 08:07 | 51.12276 | -0.37272 | 2008 ft | 156 kts | 80° |
| 2026-04-22 08:07 | 51.12510 | -0.35600 | 2001 ft | 150 kts | 81° |
| 2026-04-22 08:08 | 51.12725 | -0.34072 | 1897 ft | 133 kts | 81° |
| 2026-04-22 08:08 | 51.12914 | -0.32719 | 1766 ft | 122 kts | 80° |
| 2026-04-22 08:08 | 51.13094 | -0.31430 | 1627 ft | 118 kts | 80° |
| 2026-04-22 08:08 | 51.13270 | -0.30160 | 1469 ft | 117 kts | 80° |
| 2026-04-22 08:09 | 51.13445 | -0.28908 | 1313 ft | 115 kts | 79° |
| 2026-04-22 08:09 | 51.13617 | -0.27664 | 1142 ft | 114 kts | 78° |
| 2026-04-22 08:09 | 51.13782 | -0.26421 | 986 ft | 116 kts | 77° |
| 2026-04-22 08:09 | 51.13965 | -0.25163 | 813 ft | 115 kts | 76° |
| 2026-04-22 08:10 | 51.14154 | -0.23891 | 640 ft | 119 kts | 76° |
| 2026-04-22 08:10 | 51.14318 | -0.22619 | 441 ft | 114 kts | 79° |
| 2026-04-22 08:10 | 51.14494 | -0.21381 | 320 ft | 116 kts | 76° |
| 2026-04-22 08:10 | 51.14669 | -0.20144 | 245 ft | 113 kts | 75° |
| 2026-04-22 08:11 | 51.14810 | -0.19132 | 211 ft | 78 kts | 80° |
| 2026-04-22 08:11 | 51.14882 | -0.18546 | 206 ft | 31 kts | 77° |
| 2026-04-22 08:11 | 51.14930 | -0.18194 | 212 ft | 27 kts | 76° |
| 2026-04-22 08:11 | 51.14992 | -0.17938 | 212 ft | 26 kts | 64° |
| 2026-04-22 08:12 | 51.15087 | -0.17759 | 211 ft | 14 kts | 22° |
| 2026-04-22 08:12 | 51.15116 | -0.17760 | 206 ft | 0 kts | 349° |
| 2026-04-22 08:13 | 51.15122 | -0.17762 | 206 ft | 3 kts | 349° |
| 2026-04-22 08:13 | 51.15159 | -0.17770 | 212 ft | 8 kts | 352° |
| 2026-04-22 08:13 | 51.15227 | -0.17782 | 205 ft | 12 kts | 359° |
| 2026-04-22 08:13 | 51.15271 | -0.17671 | 205 ft | 15 kts | 78° |
| 2026-04-22 08:14 | 51.15297 | -0.17484 | 205 ft | 19 kts | 79° |
| 2026-04-22 08:14 | 51.15328 | -0.17376 | 213 ft | 10 kts | 20° |
| 2026-04-22 08:14 | 51.15410 | -0.17394 | 205 ft | 14 kts | 347° |
| 2026-04-22 08:14 | 51.15516 | -0.17431 | 214 ft | 17 kts | 348° |
| 2026-04-22 08:15 | 51.15600 | -0.17457 | 210 ft | 6 kts | 349° |
| 2026-04-22 08:15 | 51.15655 | -0.17475 | 211 ft | 10 kts | 346° |
| 2026-04-22 08:15 | 51.15727 | -0.17503 | 211 ft | 8 kts | 348° |
| 2026-04-22 08:15 | 51.15771 | -0.17447 | 209 ft | 11 kts | 76° |
| 2026-04-22 08:16 | 51.15805 | -0.17350 | 209 ft | 10 kts | 4° |
| 2026-04-22 08:16 | 51.15876 | -0.17380 | 205 ft | 0 kts | 348° |